AUA36RB LOWW-LBSF
Flight info
| Callsign | AUA36RB |
|---|---|
| Flight time | N/A |
| Altitude | 37000 |
| Route | ARSIN DCT NALOX DCT NIKAB DCT BABIT DCT LULIK DCT NIVIS DCT BGD DCT RAVAK DCT NISVA |
| Aircraft | A21N/M-SDE2E3FGHIRWXY/LB1 |
Departure
| Time | 2026-05-04 15:15 |
|---|---|
| Airport | Vienna International Airport (LOWW) |
Arrival
| Time | N/A |
|---|---|
| Airport | Sofia Airport (LBSF) |
| Time | Latitude | Longitude | Altitude | Speed | Heading |
|---|---|---|---|---|---|
| 2026-05-04 15:03 | 48.11669 | 16.56894 | 612 ft | 0 kts | 24° |
| 2026-05-04 15:08 | 48.11650 | 16.56880 | 623 ft | 4 kts | 31° |
| 2026-05-04 15:08 | 48.11628 | 16.56856 | 627 ft | 4 kts | 46° |
| 2026-05-04 15:08 | 48.11614 | 16.56825 | 622 ft | 4 kts | 85° |
| 2026-05-04 15:09 | 48.11615 | 16.56807 | 623 ft | 1 kts | 115° |
| 2026-05-04 15:10 | 48.11609 | 16.56825 | 620 ft | 8 kts | 115° |
| 2026-05-04 15:11 | 48.11605 | 16.56840 | 617 ft | 11 kts | 115° |
| 2026-05-04 15:11 | 48.11600 | 16.56854 | 624 ft | 15 kts | 115° |
| 2026-05-04 15:12 | 48.11490 | 16.57187 | 619 ft | 44 kts | 116° |
| 2026-05-04 15:12 | 48.11368 | 16.57633 | 621 ft | 45 kts | 88° |
| 2026-05-04 15:12 | 48.11622 | 16.57550 | 612 ft | 0 kts | 345° |
| 2026-05-04 15:13 | 48.11642 | 16.57542 | 623 ft | 11 kts | 345° |
| 2026-05-04 15:13 | 48.11793 | 16.57475 | 623 ft | 33 kts | 342° |
| 2026-05-04 15:13 | 48.11992 | 16.57428 | 619 ft | 13 kts | 38° |
| 2026-05-04 15:13 | 48.11995 | 16.57602 | 618 ft | 25 kts | 104° |
| 2026-05-04 15:14 | 48.11873 | 16.57856 | 622 ft | 38 kts | 158° |
| 2026-05-04 15:14 | 48.11506 | 16.58017 | 619 ft | 86 kts | 164° |
| 2026-05-04 15:14 | 48.10663 | 16.58376 | 623 ft | 159 kts | 163° |
| 2026-05-04 15:14 | 48.09508 | 16.58899 | 885 ft | 187 kts | 161° |
| 2026-05-04 15:15 | 48.08207 | 16.59424 | 1519 ft | 200 kts | 167° |
| 2026-05-04 15:15 | 48.06791 | 16.59935 | 2212 ft | 216 kts | 167° |
| 2026-05-04 15:15 | 48.05308 | 16.60554 | 2777 ft | 231 kts | 166° |
| 2026-05-04 15:16 | 48.02052 | 16.61981 | 4087 ft | 247 kts | 166° |
| 2026-05-04 15:16 | 48.00373 | 16.62705 | 4760 ft | 255 kts | 166° |
| 2026-05-04 15:16 | 47.96854 | 16.63495 | 6125 ft | 262 kts | 172° |
| 2026-05-04 15:17 | 47.95056 | 16.64259 | 6637 ft | 276 kts | 163° |
| 2026-05-04 15:17 | 47.91538 | 16.66506 | 8314 ft | 274 kts | 158° |
| 2026-05-04 15:17 | 47.89814 | 16.67775 | 9099 ft | 279 kts | 156° |
| 2026-05-04 15:18 | 47.88062 | 16.69076 | 9857 ft | 282 kts | 156° |
| 2026-05-04 15:18 | 47.86274 | 16.70383 | 10425 ft | 294 kts | 157° |
| 2026-05-04 15:18 | 47.84372 | 16.71738 | 10730 ft | 313 kts | 158° |
| 2026-05-04 15:19 | 47.80200 | 16.74644 | 11464 ft | 345 kts | 158° |
| 2026-05-04 15:19 | 47.78003 | 16.76168 | 12081 ft | 351 kts | 157° |
| 2026-05-04 15:19 | 47.73530 | 16.79263 | 13526 ft | 357 kts | 157° |
| 2026-05-04 15:20 | 47.71267 | 16.80825 | 14176 ft | 361 kts | 157° |
| 2026-05-04 15:20 | 47.68974 | 16.82405 | 14740 ft | 365 kts | 157° |
| 2026-05-04 15:20 | 47.66657 | 16.84000 | 15355 ft | 369 kts | 158° |
| 2026-05-04 15:20 | 47.64318 | 16.85608 | 15974 ft | 373 kts | 158° |
| 2026-05-04 15:21 | 47.61951 | 16.87234 | 16586 ft | 376 kts | 157° |
| 2026-05-04 15:21 | 47.59564 | 16.88874 | 17174 ft | 381 kts | 157° |
| 2026-05-04 15:21 | 47.54706 | 16.92208 | 18321 ft | 389 kts | 157° |
| 2026-05-04 15:22 | 47.52238 | 16.93897 | 18791 ft | 393 kts | 157° |
| 2026-05-04 15:22 | 47.49741 | 16.95604 | 19236 ft | 398 kts | 157° |
| 2026-05-04 15:22 | 47.44675 | 16.99061 | 20203 ft | 404 kts | 157° |
| 2026-05-04 15:23 | 47.42114 | 17.00807 | 20673 ft | 407 kts | 157° |
| 2026-05-04 15:23 | 47.39528 | 17.02567 | 21140 ft | 411 kts | 157° |
| 2026-05-04 15:23 | 47.36926 | 17.04337 | 21584 ft | 414 kts | 157° |
| 2026-05-04 15:23 | 47.34294 | 17.06125 | 22021 ft | 418 kts | 157° |
| 2026-05-04 15:24 | 47.28959 | 17.09745 | 22932 ft | 425 kts | 156° |
| 2026-05-04 15:24 | 47.23540 | 17.13415 | 23786 ft | 432 kts | 156° |
| 2026-05-04 15:25 | 47.20798 | 17.15269 | 24148 ft | 435 kts | 156° |
| 2026-05-04 15:25 | 47.18037 | 17.17133 | 24540 ft | 437 kts | 156° |
| 2026-05-04 15:25 | 47.15277 | 17.18995 | 24992 ft | 438 kts | 156° |
| 2026-05-04 15:26 | 47.09701 | 17.22746 | 25635 ft | 444 kts | 156° |
| 2026-05-04 15:26 | 47.06884 | 17.24638 | 25951 ft | 447 kts | 156° |
| 2026-05-04 15:26 | 47.01236 | 17.28424 | 26583 ft | 452 kts | 156° |
| 2026-05-04 15:27 | 46.98370 | 17.30343 | 26901 ft | 454 kts | 156° |
| 2026-05-04 15:27 | 46.92590 | 17.34207 | 27472 ft | 459 kts | 156° |
| 2026-05-04 15:28 | 46.86724 | 17.38118 | 27905 ft | 467 kts | 156° |
| 2026-05-04 15:28 | 46.83760 | 17.40090 | 28232 ft | 468 kts | 156° |
| 2026-05-04 15:28 | 46.77859 | 17.44008 | 29152 ft | 464 kts | 156° |
| 2026-05-04 15:29 | 46.74922 | 17.45956 | 29612 ft | 462 kts | 156° |
| 2026-05-04 15:30 | 46.63419 | 17.54206 | 30866 ft | 462 kts | 144° |
| 2026-05-04 15:30 | 46.56952 | 17.64495 | 31711 ft | 460 kts | 125° |
| 2026-05-04 15:31 | 46.53268 | 17.72091 | 32264 ft | 459 kts | 124° |
| 2026-05-04 15:31 | 46.51452 | 17.75899 | 32540 ft | 458 kts | 124° |
| 2026-05-04 15:32 | 46.45972 | 17.87245 | 33319 ft | 457 kts | 124° |
| 2026-05-04 15:32 | 46.42318 | 17.94698 | 33792 ft | 456 kts | 124° |
| 2026-05-04 15:33 | 46.38639 | 18.02160 | 34243 ft | 454 kts | 124° |
| 2026-05-04 15:34 | 46.33129 | 18.13306 | 34732 ft | 454 kts | 124° |
| 2026-05-04 15:34 | 46.31289 | 18.17020 | 34906 ft | 454 kts | 124° |
| 2026-05-04 15:34 | 46.27612 | 18.24427 | 35249 ft | 453 kts | 124° |
| 2026-05-04 15:35 | 46.23933 | 18.31817 | 35576 ft | 453 kts | 124° |
| 2026-05-04 15:35 | 46.22090 | 18.35513 | 35710 ft | 452 kts | 124° |
| 2026-05-04 15:35 | 46.20251 | 18.39197 | 35853 ft | 452 kts | 124° |
| 2026-05-04 15:36 | 46.16564 | 18.46565 | 36102 ft | 452 kts | 124° |
| 2026-05-04 15:36 | 46.12888 | 18.53893 | 36269 ft | 454 kts | 125° |
| 2026-05-04 15:37 | 46.11035 | 18.57581 | 36371 ft | 454 kts | 125° |
| 2026-05-04 15:37 | 46.09178 | 18.61269 | 36436 ft | 455 kts | 124° |
| 2026-05-04 15:37 | 46.05438 | 18.68686 | 36598 ft | 457 kts | 124° |
| 2026-05-04 15:38 | 46.01690 | 18.76098 | 36766 ft | 458 kts | 125° |
| 2026-05-04 15:38 | 45.97932 | 18.83511 | 36923 ft | 459 kts | 125° |
| 2026-05-04 15:39 | 45.94133 | 18.90914 | 37062 ft | 462 kts | 129° |
| 2026-05-04 15:40 | 45.87224 | 19.00619 | 37058 ft | 464 kts | 137° |
| 2026-05-04 15:40 | 45.82402 | 19.06764 | 37066 ft | 464 kts | 137° |
| 2026-05-04 15:41 | 45.77565 | 19.12881 | 37064 ft | 464 kts | 137° |
| 2026-05-04 15:41 | 45.72768 | 19.18966 | 37067 ft | 464 kts | 137° |
| 2026-05-04 15:42 | 45.67939 | 19.25100 | 37069 ft | 465 kts | 137° |
| 2026-05-04 15:42 | 45.63105 | 19.31232 | 37067 ft | 465 kts | 137° |
| 2026-05-04 15:43 | 45.58265 | 19.37354 | 37065 ft | 465 kts | 137° |
| 2026-05-04 15:43 | 45.53426 | 19.43461 | 37072 ft | 465 kts | 137° |
| 2026-05-04 15:44 | 45.48580 | 19.49560 | 37061 ft | 464 kts | 137° |
| 2026-05-04 15:44 | 45.43735 | 19.55641 | 37078 ft | 464 kts | 137° |
| 2026-05-04 15:45 | 45.38888 | 19.61711 | 37071 ft | 464 kts | 137° |
| 2026-05-04 15:45 | 45.34034 | 19.67777 | 37072 ft | 464 kts | 137° |
| 2026-05-04 15:46 | 45.29180 | 19.73825 | 37080 ft | 464 kts | 137° |
| 2026-05-04 15:46 | 45.24343 | 19.79832 | 37081 ft | 464 kts | 137° |
| 2026-05-04 15:47 | 45.19453 | 19.85813 | 37086 ft | 464 kts | 138° |
| 2026-05-04 15:47 | 45.14549 | 19.91771 | 37083 ft | 464 kts | 138° |
| 2026-05-04 15:48 | 45.09647 | 19.97715 | 37083 ft | 465 kts | 138° |
| 2026-05-04 15:48 | 45.02273 | 20.06643 | 37085 ft | 465 kts | 138° |
| 2026-05-04 15:49 | 44.97357 | 20.12578 | 37079 ft | 465 kts | 138° |
| 2026-05-04 15:49 | 44.92443 | 20.18499 | 37066 ft | 465 kts | 138° |
| 2026-05-04 15:50 | 44.87522 | 20.24413 | 37075 ft | 465 kts | 138° |
| 2026-05-04 15:50 | 44.82588 | 20.30329 | 37076 ft | 466 kts | 138° |
| 2026-05-04 15:51 | 44.77645 | 20.36229 | 37074 ft | 466 kts | 138° |
| 2026-05-04 15:51 | 44.72692 | 20.42117 | 37077 ft | 466 kts | 138° |
| 2026-05-04 15:52 | 44.68579 | 20.46996 | 37096 ft | 466 kts | 138° |
| 2026-05-04 15:52 | 44.63613 | 20.52877 | 37087 ft | 467 kts | 138° |
| 2026-05-04 15:53 | 44.57837 | 20.59700 | 37095 ft | 467 kts | 138° |
| 2026-05-04 15:53 | 44.52861 | 20.65564 | 37099 ft | 467 kts | 138° |
| 2026-05-04 15:54 | 44.48690 | 20.70468 | 37099 ft | 467 kts | 138° |
| 2026-05-04 15:54 | 44.43723 | 20.76294 | 37090 ft | 465 kts | 138° |
| 2026-05-04 15:55 | 44.38764 | 20.82100 | 37102 ft | 465 kts | 138° |
| 2026-05-04 15:55 | 44.33804 | 20.87895 | 37102 ft | 465 kts | 138° |
| 2026-05-04 15:56 | 44.28866 | 20.93649 | 37099 ft | 465 kts | 138° |
| 2026-05-04 15:56 | 44.23905 | 20.99417 | 37099 ft | 463 kts | 138° |
| 2026-05-04 15:57 | 44.18954 | 21.05161 | 37095 ft | 463 kts | 138° |
| 2026-05-04 15:57 | 44.14001 | 21.10894 | 37102 ft | 464 kts | 138° |
| 2026-05-04 15:58 | 44.09035 | 21.16630 | 37099 ft | 464 kts | 138° |
| 2026-05-04 15:58 | 44.04061 | 21.22361 | 37100 ft | 464 kts | 139° |
| 2026-05-04 15:59 | 43.99081 | 21.28085 | 37102 ft | 465 kts | 139° |
| 2026-05-04 15:59 | 43.96596 | 21.30937 | 36899 ft | 462 kts | 138° |
| 2026-05-04 15:59 | 43.94124 | 21.33770 | 36295 ft | 460 kts | 138° |
| 2026-05-04 16:00 | 43.91660 | 21.36591 | 35705 ft | 458 kts | 138° |
| 2026-05-04 16:00 | 43.89209 | 21.39394 | 35085 ft | 457 kts | 138° |
| 2026-05-04 16:00 | 43.86755 | 21.42198 | 34439 ft | 457 kts | 137° |
| 2026-05-04 16:00 | 43.84303 | 21.44997 | 33836 ft | 456 kts | 137° |
| 2026-05-04 16:01 | 43.81862 | 21.47780 | 33168 ft | 454 kts | 137° |
| 2026-05-04 16:01 | 43.79423 | 21.50559 | 32454 ft | 454 kts | 137° |
| 2026-05-04 16:01 | 43.76981 | 21.53339 | 31736 ft | 455 kts | 137° |
| 2026-05-04 16:01 | 43.74534 | 21.56120 | 31031 ft | 455 kts | 137° |
| 2026-05-04 16:02 | 43.72096 | 21.58889 | 30419 ft | 453 kts | 137° |
| 2026-05-04 16:02 | 43.69693 | 21.61673 | 29802 ft | 448 kts | 133° |
| 2026-05-04 16:02 | 43.65602 | 21.67992 | 28614 ft | 436 kts | 128° |
| 2026-05-04 16:03 | 43.63669 | 21.71180 | 28134 ft | 430 kts | 128° |
| 2026-05-04 16:03 | 43.61762 | 21.74341 | 27421 ft | 429 kts | 128° |
| 2026-05-04 16:03 | 43.59837 | 21.77541 | 26402 ft | 436 kts | 128° |
| 2026-05-04 16:03 | 43.57917 | 21.80729 | 25636 ft | 437 kts | 129° |
| 2026-05-04 16:04 | 43.55954 | 21.83986 | 25003 ft | 435 kts | 129° |
| 2026-05-04 16:04 | 43.52143 | 21.90301 | 23859 ft | 427 kts | 129° |
| 2026-05-04 16:04 | 43.50250 | 21.93433 | 23255 ft | 422 kts | 129° |
| 2026-05-04 16:05 | 43.48376 | 21.96528 | 22585 ft | 419 kts | 128° |
| 2026-05-04 16:05 | 43.46517 | 21.99595 | 21926 ft | 415 kts | 129° |
| 2026-05-04 16:05 | 43.42851 | 22.05636 | 20693 ft | 407 kts | 128° |
| 2026-05-04 16:06 | 43.41041 | 22.08615 | 20079 ft | 404 kts | 128° |
| 2026-05-04 16:06 | 43.36242 | 22.16503 | 17840 ft | 411 kts | 127° |
| 2026-05-04 16:07 | 43.33792 | 22.20522 | 16918 ft | 406 kts | 127° |
| 2026-05-04 16:07 | 43.28457 | 22.29245 | 14967 ft | 390 kts | 127° |
| 2026-05-04 16:08 | 43.26725 | 22.32074 | 14378 ft | 385 kts | 127° |
| 2026-05-04 16:08 | 43.21636 | 22.40368 | 12243 ft | 373 kts | 127° |
| 2026-05-04 16:09 | 43.18348 | 22.45717 | 10855 ft | 367 kts | 127° |
| 2026-05-04 16:09 | 43.15078 | 22.51027 | 9390 ft | 362 kts | 128° |
| 2026-05-04 16:10 | 43.11846 | 22.56264 | 7828 ft | 358 kts | 128° |